METAR AND TAF INFORMATION
METAR FOR FBFT
ADDS - METARS form results

(0610 UTC 21 February 2019)
Data provider http://aviationweather.gov/metar/data/
 
Forecast for: FBFT (FRANCISTOWN , BW)
Text: FBFT 210300Z 2106/2115 06003KT CAVOK
Forecast period: 0600 to 1500 UTC 21 February 2019
Forecast type: FROM: standard forecast or significant change
Winds: from the ENE (60 degrees) at 3 MPH (3 knots; 1.5 m/s)
Visibility: 6 or more miles 10+ km)
Ceiling: unknown
Clouds: missing
Weather: NSW  (no significant weather)

 AIRPORT MAP

 RUNWAY INFORMATION
Runway 11 Runway length 7218 ft Runway width 98 ft
Runway elevation 3281 ft Runway displaced threshold 0 ft Runway heading 97
Runway 29 Runway length 7218 ft Runway width 98 ft
Runway elevation 3278 ft Runway displaced threshold 0 ft Runway heading 277
Runway 16 Runway length 4147 ft Runway width 72 ft
Runway elevation 3271 ft Runway displaced threshold 0 ft Runway heading 147
Runway 34 Runway length 4147 ft Runway width 72 ft
Runway elevation 3283 ft Runway displaced threshold 0 ft Runway heading 327

 AIRPORT FREQUENCIES
Type APP Name APP Frequency 125.7 MHZ
Type TWR Name TWR Frequency 118.1 MHZ

 AIRPORT NEAR NAVIGATION AIDS
Type VOR-DME Name Francistown Frequency 112400 KHZ